sensor_id;sensor_type;location;lat;lon;timestamp;temperature;humidity
65038;DHT22;51605;47.040;15.294;2023-11-19T00:00:20;21.80;46.70
65038;DHT22;51605;47.040;15.294;2023-11-19T00:02:45;21.80;46.70
65038;DHT22;51605;47.040;15.294;2023-11-19T00:05:12;21.80;46.60
65038;DHT22;51605;47.040;15.294;2023-11-19T00:07:39;21.80;46.60
65038;DHT22;51605;47.040;15.294;2023-11-19T00:10:09;21.80;46.70
65038;DHT22;51605;47.040;15.294;2023-11-19T00:12:36;21.80;46.60
65038;DHT22;51605;47.040;15.294;2023-11-19T00:15:02;21.80;46.60
65038;DHT22;51605;47.040;15.294;2023-11-19T00:17:28;21.80;46.50
65038;DHT22;51605;47.040;15.294;2023-11-19T00:19:53;21.80;46.60
65038;DHT22;51605;47.040;15.294;2023-11-19T00:22:19;21.80;46.60
65038;DHT22;51605;47.040;15.294;2023-11-19T00:24:46;21.80;46.70
65038;DHT22;51605;47.040;15.294;2023-11-19T00:27:12;21.80;46.60
65038;DHT22;51605;47.040;15.294;2023-11-19T00:29:38;21.80;46.70
65038;DHT22;51605;47.040;15.294;2023-11-19T00:32:04;21.80;46.70
65038;DHT22;51605;47.040;15.294;2023-11-19T00:34:30;21.80;46.80
65038;DHT22;51605;47.040;15.294;2023-11-19T00:36:56;21.80;46.70
65038;DHT22;51605;47.040;15.294;2023-11-19T00:39:22;21.80;46.70
65038;DHT22;51605;47.040;15.294;2023-11-19T00:41:48;21.80;46.70
65038;DHT22;51605;47.040;15.294;2023-11-19T00:44:13;21.80;46.70
65038;DHT22;51605;47.040;15.294;2023-11-19T00:46:39;21.80;46.70
65038;DHT22;51605;47.040;15.294;2023-11-19T00:49:05;21.80;46.60
65038;DHT22;51605;47.040;15.294;2023-11-19T00:51:31;21.80;46.60
65038;DHT22;51605;47.040;15.294;2023-11-19T00:53:57;21.80;47.20
65038;DHT22;51605;47.040;15.294;2023-11-19T00:56:23;21.80;46.60
65038;DHT22;51605;47.040;15.294;2023-11-19T00:58:49;21.80;46.60
65038;DHT22;51605;47.040;15.294;2023-11-19T01:01:15;21.80;46.50
65038;DHT22;51605;47.040;15.294;2023-11-19T01:03:40;21.80;46.60
65038;DHT22;51605;47.040;15.294;2023-11-19T01:06:06;21.80;46.60
65038;DHT22;51605;47.040;15.294;2023-11-19T01:08:33;21.80;46.70
65038;DHT22;51605;47.040;15.294;2023-11-19T01:11:01;21.80;46.60
65038;DHT22;51605;47.040;15.294;2023-11-19T01:13:27;21.80;46.70
65038;DHT22;51605;47.040;15.294;2023-11-19T01:15:53;21.80;46.70
65038;DHT22;51605;47.040;15.294;2023-11-19T01:18:19;21.80;46.70
65038;DHT22;51605;47.040;15.294;2023-11-19T01:20:44;21.80;46.60
65038;DHT22;51605;47.040;15.294;2023-11-19T01:23:10;21.80;46.60
65038;DHT22;51605;47.040;15.294;2023-11-19T01:25:35;21.80;46.70
65038;DHT22;51605;47.040;15.294;2023-11-19T01:28:03;21.80;46.60
65038;DHT22;51605;47.040;15.294;2023-11-19T01:30:30;21.80;46.60
65038;DHT22;51605;47.040;15.294;2023-11-19T01:32:56;21.80;46.60
65038;DHT22;51605;47.040;15.294;2023-11-19T01:35:21;21.80;46.60
65038;DHT22;51605;47.040;15.294;2023-11-19T01:37:48;21.80;46.70
65038;DHT22;51605;47.040;15.294;2023-11-19T01:40:14;21.80;46.60
65038;DHT22;51605;47.040;15.294;2023-11-19T01:42:41;21.80;46.60
65038;DHT22;51605;47.040;15.294;2023-11-19T01:45:07;21.80;46.60
65038;DHT22;51605;47.040;15.294;2023-11-19T01:47:35;21.80;46.70
65038;DHT22;51605;47.040;15.294;2023-11-19T01:50:01;21.80;46.60
65038;DHT22;51605;47.040;15.294;2023-11-19T01:52:33;21.80;46.60
65038;DHT22;51605;47.040;15.294;2023-11-19T01:55:00;21.80;46.50
65038;DHT22;51605;47.040;15.294;2023-11-19T01:57:26;21.80;46.50
65038;DHT22;51605;47.040;15.294;2023-11-19T01:59:52;21.80;46.50
65038;DHT22;51605;47.040;15.294;2023-11-19T02:02:19;21.80;46.60
65038;DHT22;51605;47.040;15.294;2023-11-19T02:04:47;21.80;46.70
65038;DHT22;51605;47.040;15.294;2023-11-19T02:07:14;21.80;46.60
65038;DHT22;51605;47.040;15.294;2023-11-19T02:09:43;21.80;46.60
65038;DHT22;51605;47.040;15.294;2023-11-19T02:12:09;21.80;46.60
65038;DHT22;51605;47.040;15.294;2023-11-19T02:14:37;21.80;46.60
65038;DHT22;51605;47.040;15.294;2023-11-19T02:17:03;21.80;46.60
65038;DHT22;51605;47.040;15.294;2023-11-19T02:19:29;21.80;46.60
65038;DHT22;51605;47.040;15.294;2023-11-19T02:21:55;21.80;46.50
65038;DHT22;51605;47.040;15.294;2023-11-19T02:24:22;21.80;46.50
65038;DHT22;51605;47.040;15.294;2023-11-19T02:29:22;21.80;46.60
65038;DHT22;51605;47.040;15.294;2023-11-19T02:31:48;21.80;46.60
65038;DHT22;51605;47.040;15.294;2023-11-19T02:34:14;21.80;46.70
65038;DHT22;51605;47.040;15.294;2023-11-19T02:36:39;21.80;46.60
65038;DHT22;51605;47.040;15.294;2023-11-19T02:39:07;21.80;46.60
65038;DHT22;51605;47.040;15.294;2023-11-19T02:41:36;21.80;46.60
65038;DHT22;51605;47.040;15.294;2023-11-19T02:44:02;21.80;46.60
65038;DHT22;51605;47.040;15.294;2023-11-19T02:46:28;21.80;46.60
65038;DHT22;51605;47.040;15.294;2023-11-19T02:48:54;21.80;46.60
65038;DHT22;51605;47.040;15.294;2023-11-19T02:51:19;21.80;46.70
65038;DHT22;51605;47.040;15.294;2023-11-19T02:53:45;21.80;46.60
65038;DHT22;51605;47.040;15.294;2023-11-19T02:56:13;21.80;46.70
65038;DHT22;51605;47.040;15.294;2023-11-19T02:58:51;21.80;46.60
65038;DHT22;51605;47.040;15.294;2023-11-19T03:01:25;21.80;46.60
65038;DHT22;51605;47.040;15.294;2023-11-19T03:03:59;21.80;46.60
65038;DHT22;51605;47.040;15.294;2023-11-19T03:06:27;21.80;46.60
65038;DHT22;51605;47.040;15.294;2023-11-19T03:08:54;21.80;46.60
65038;DHT22;51605;47.040;15.294;2023-11-19T03:11:19;21.80;46.60
65038;DHT22;51605;47.040;15.294;2023-11-19T03:13:45;21.80;46.60
65038;DHT22;51605;47.040;15.294;2023-11-19T03:16:12;21.80;46.60
65038;DHT22;51605;47.040;15.294;2023-11-19T03:18:38;21.80;46.50
65038;DHT22;51605;47.040;15.294;2023-11-19T03:21:06;21.80;46.60
65038;DHT22;51605;47.040;15.294;2023-11-19T03:23:31;21.80;46.60
65038;DHT22;51605;47.040;15.294;2023-11-19T03:25:57;21.80;46.70
65038;DHT22;51605;47.040;15.294;2023-11-19T03:28:23;21.80;46.60
65038;DHT22;51605;47.040;15.294;2023-11-19T03:30:48;21.80;46.60
65038;DHT22;51605;47.040;15.294;2023-11-19T03:33:14;21.80;46.60
65038;DHT22;51605;47.040;15.294;2023-11-19T03:35:40;21.80;46.60
65038;DHT22;51605;47.040;15.294;2023-11-19T03:38:06;21.80;46.60
65038;DHT22;51605;47.040;15.294;2023-11-19T03:40:32;21.80;46.60
65038;DHT22;51605;47.040;15.294;2023-11-19T03:42:58;21.80;46.60
65038;DHT22;51605;47.040;15.294;2023-11-19T03:45:24;21.80;46.60
65038;DHT22;51605;47.040;15.294;2023-11-19T03:47:50;21.80;46.60
65038;DHT22;51605;47.040;15.294;2023-11-19T03:50:16;21.80;46.60
65038;DHT22;51605;47.040;15.294;2023-11-19T03:52:42;21.80;46.60
65038;DHT22;51605;47.040;15.294;2023-11-19T03:55:08;21.80;46.60
65038;DHT22;51605;47.040;15.294;2023-11-19T03:57:35;21.80;46.60
65038;DHT22;51605;47.040;15.294;2023-11-19T04:00:01;21.80;46.50
65038;DHT22;51605;47.040;15.294;2023-11-19T04:02:33;21.80;46.60
65038;DHT22;51605;47.040;15.294;2023-11-19T04:04:58;21.80;46.60
65038;DHT22;51605;47.040;15.294;2023-11-19T04:07:24;21.80;46.60
65038;DHT22;51605;47.040;15.294;2023-11-19T04:09:50;21.80;46.60
65038;DHT22;51605;47.040;15.294;2023-11-19T04:12:16;21.80;46.60
65038;DHT22;51605;47.040;15.294;2023-11-19T04:14:42;21.80;47.50
65038;DHT22;51605;47.040;15.294;2023-11-19T04:17:07;21.80;46.50
65038;DHT22;51605;47.040;15.294;2023-11-19T04:19:33;21.80;46.40
65038;DHT22;51605;47.040;15.294;2023-11-19T04:21:59;21.80;46.50
65038;DHT22;51605;47.040;15.294;2023-11-19T04:24:24;21.80;46.50
65038;DHT22;51605;47.040;15.294;2023-11-19T04:26:50;21.80;46.50
65038;DHT22;51605;47.040;15.294;2023-11-19T04:29:16;21.80;46.60
65038;DHT22;51605;47.040;15.294;2023-11-19T04:31:43;21.80;46.50
65038;DHT22;51605;47.040;15.294;2023-11-19T04:34:09;21.80;46.60
65038;DHT22;51605;47.040;15.294;2023-11-19T04:36:35;21.80;46.40
65038;DHT22;51605;47.040;15.294;2023-11-19T04:39:01;21.80;46.50
65038;DHT22;51605;47.040;15.294;2023-11-19T04:41:27;21.80;46.60
65038;DHT22;51605;47.040;15.294;2023-11-19T04:43:55;21.80;46.50
65038;DHT22;51605;47.040;15.294;2023-11-19T04:46:21;21.80;46.60
65038;DHT22;51605;47.040;15.294;2023-11-19T04:48:47;21.80;46.70
65038;DHT22;51605;47.040;15.294;2023-11-19T04:51:13;21.80;46.60
65038;DHT22;51605;47.040;15.294;2023-11-19T04:53:38;21.80;46.50
65038;DHT22;51605;47.040;15.294;2023-11-19T04:56:08;21.80;46.50
65038;DHT22;51605;47.040;15.294;2023-11-19T04:58:34;21.80;46.60
65038;DHT22;51605;47.040;15.294;2023-11-19T05:01:03;21.80;46.50
65038;DHT22;51605;47.040;15.294;2023-11-19T05:03:29;21.80;46.60
65038;DHT22;51605;47.040;15.294;2023-11-19T05:05:55;21.80;46.60
65038;DHT22;51605;47.040;15.294;2023-11-19T05:08:21;21.80;46.50
65038;DHT22;51605;47.040;15.294;2023-11-19T05:10:46;21.80;46.50
65038;DHT22;51605;47.040;15.294;2023-11-19T05:13:12;21.80;46.50
65038;DHT22;51605;47.040;15.294;2023-11-19T05:15:38;21.80;46.50
65038;DHT22;51605;47.040;15.294;2023-11-19T05:18:03;21.80;46.60
65038;DHT22;51605;47.040;15.294;2023-11-19T05:20:30;21.80;46.40
65038;DHT22;51605;47.040;15.294;2023-11-19T05:22:56;21.80;46.50
65038;DHT22;51605;47.040;15.294;2023-11-19T05:25:22;21.80;46.40
65038;DHT22;51605;47.040;15.294;2023-11-19T05:27:48;21.80;46.50
65038;DHT22;51605;47.040;15.294;2023-11-19T05:30:13;21.80;46.60
65038;DHT22;51605;47.040;15.294;2023-11-19T05:32:39;21.80;46.60
65038;DHT22;51605;47.040;15.294;2023-11-19T05:35:05;21.80;46.60
65038;DHT22;51605;47.040;15.294;2023-11-19T05:37:31;21.80;46.60
65038;DHT22;51605;47.040;15.294;2023-11-19T05:39:56;21.80;46.50
65038;DHT22;51605;47.040;15.294;2023-11-19T05:42:22;21.80;46.50
65038;DHT22;51605;47.040;15.294;2023-11-19T05:44:49;21.80;46.50
65038;DHT22;51605;47.040;15.294;2023-11-19T05:47:14;21.80;46.60
65038;DHT22;51605;47.040;15.294;2023-11-19T05:49:40;21.80;46.50
65038;DHT22;51605;47.040;15.294;2023-11-19T05:52:06;21.80;46.50
65038;DHT22;51605;47.040;15.294;2023-11-19T05:54:33;21.80;46.50
65038;DHT22;51605;47.040;15.294;2023-11-19T05:57:06;21.80;46.60
65038;DHT22;51605;47.040;15.294;2023-11-19T05:59:35;21.80;46.40
65038;DHT22;51605;47.040;15.294;2023-11-19T06:02:02;21.80;46.60
65038;DHT22;51605;47.040;15.294;2023-11-19T06:04:27;21.80;46.40
65038;DHT22;51605;47.040;15.294;2023-11-19T06:06:53;21.80;46.50
65038;DHT22;51605;47.040;15.294;2023-11-19T06:09:20;21.80;46.60
65038;DHT22;51605;47.040;15.294;2023-11-19T06:11:46;21.80;46.50
65038;DHT22;51605;47.040;15.294;2023-11-19T06:14:12;21.80;46.50
65038;DHT22;51605;47.040;15.294;2023-11-19T06:16:38;21.80;46.50
65038;DHT22;51605;47.040;15.294;2023-11-19T06:19:05;21.80;46.40
65038;DHT22;51605;47.040;15.294;2023-11-19T06:21:30;21.80;46.50
65038;DHT22;51605;47.040;15.294;2023-11-19T06:23:56;21.80;46.40
65038;DHT22;51605;47.040;15.294;2023-11-19T06:26:22;21.80;46.50
65038;DHT22;51605;47.040;15.294;2023-11-19T06:28:48;21.80;46.50
65038;DHT22;51605;47.040;15.294;2023-11-19T06:31:13;21.80;46.40
65038;DHT22;51605;47.040;15.294;2023-11-19T06:33:41;21.80;46.60
65038;DHT22;51605;47.040;15.294;2023-11-19T06:36:08;21.80;46.50
65038;DHT22;51605;47.040;15.294;2023-11-19T06:38:34;21.80;46.40
65038;DHT22;51605;47.040;15.294;2023-11-19T06:41:00;21.80;46.60
65038;DHT22;51605;47.040;15.294;2023-11-19T06:43:25;21.80;46.40
65038;DHT22;51605;47.040;15.294;2023-11-19T06:45:51;21.80;46.40
65038;DHT22;51605;47.040;15.294;2023-11-19T06:48:16;21.80;47.40
65038;DHT22;51605;47.040;15.294;2023-11-19T06:50:42;21.80;46.60
65038;DHT22;51605;47.040;15.294;2023-11-19T06:53:08;21.80;46.50
65038;DHT22;51605;47.040;15.294;2023-11-19T06:55:35;21.80;46.60
65038;DHT22;51605;47.040;15.294;2023-11-19T06:58:01;21.80;46.50
65038;DHT22;51605;47.040;15.294;2023-11-19T07:00:28;21.80;46.60
65038;DHT22;51605;47.040;15.294;2023-11-19T07:02:54;21.70;46.60
65038;DHT22;51605;47.040;15.294;2023-11-19T07:05:20;21.80;46.60
65038;DHT22;51605;47.040;15.294;2023-11-19T07:07:46;21.70;46.70
65038;DHT22;51605;47.040;15.294;2023-11-19T07:10:12;21.80;46.70
65038;DHT22;51605;47.040;15.294;2023-11-19T07:12:38;21.70;46.60
65038;DHT22;51605;47.040;15.294;2023-11-19T07:15:04;21.70;46.30
65038;DHT22;51605;47.040;15.294;2023-11-19T07:17:31;21.80;46.40
65038;DHT22;51605;47.040;15.294;2023-11-19T07:19:56;21.70;46.40
65038;DHT22;51605;47.040;15.294;2023-11-19T07:22:25;21.70;46.40
65038;DHT22;51605;47.040;15.294;2023-11-19T07:24:50;21.80;46.60
65038;DHT22;51605;47.040;15.294;2023-11-19T07:27:16;21.80;46.40
65038;DHT22;51605;47.040;15.294;2023-11-19T07:29:43;21.70;46.30
65038;DHT22;51605;47.040;15.294;2023-11-19T07:32:10;21.70;46.30
65038;DHT22;51605;47.040;15.294;2023-11-19T07:34:36;21.80;46.20
65038;DHT22;51605;47.040;15.294;2023-11-19T07:37:01;21.80;46.20
65038;DHT22;51605;47.040;15.294;2023-11-19T07:39:28;21.80;46.10
65038;DHT22;51605;47.040;15.294;2023-11-19T07:41:54;21.80;46.10
65038;DHT22;51605;47.040;15.294;2023-11-19T07:44:20;21.80;46.00
65038;DHT22;51605;47.040;15.294;2023-11-19T07:46:47;21.80;46.10
65038;DHT22;51605;47.040;15.294;2023-11-19T07:49:13;21.80;46.10
65038;DHT22;51605;47.040;15.294;2023-11-19T07:51:39;21.80;46.00
65038;DHT22;51605;47.040;15.294;2023-11-19T07:54:05;21.80;46.00
65038;DHT22;51605;47.040;15.294;2023-11-19T07:56:34;21.80;45.90
65038;DHT22;51605;47.040;15.294;2023-11-19T07:59:01;21.80;46.00
65038;DHT22;51605;47.040;15.294;2023-11-19T08:01:27;21.80;45.90
65038;DHT22;51605;47.040;15.294;2023-11-19T08:03:55;21.80;46.10
65038;DHT22;51605;47.040;15.294;2023-11-19T08:06:22;21.80;46.30
65038;DHT22;51605;47.040;15.294;2023-11-19T08:08:47;21.80;46.20
65038;DHT22;51605;47.040;15.294;2023-11-19T08:11:14;21.80;46.20
65038;DHT22;51605;47.040;15.294;2023-11-19T08:13:40;21.80;46.20
65038;DHT22;51605;47.040;15.294;2023-11-19T08:16:06;21.80;46.20
65038;DHT22;51605;47.040;15.294;2023-11-19T08:18:32;21.80;47.20
65038;DHT22;51605;47.040;15.294;2023-11-19T08:21:10;21.80;46.70
65038;DHT22;51605;47.040;15.294;2023-11-19T08:23:36;21.80;46.50
65038;DHT22;51605;47.040;15.294;2023-11-19T08:26:02;21.80;46.50
65038;DHT22;51605;47.040;15.294;2023-11-19T08:28:28;21.80;46.40
65038;DHT22;51605;47.040;15.294;2023-11-19T08:30:54;21.80;46.40
65038;DHT22;51605;47.040;15.294;2023-11-19T08:33:20;21.80;46.40
65038;DHT22;51605;47.040;15.294;2023-11-19T08:35:48;21.80;46.40
65038;DHT22;51605;47.040;15.294;2023-11-19T08:38:13;21.80;46.30
65038;DHT22;51605;47.040;15.294;2023-11-19T08:40:39;21.80;46.40
65038;DHT22;51605;47.040;15.294;2023-11-19T08:43:04;21.80;46.40
65038;DHT22;51605;47.040;15.294;2023-11-19T08:45:30;21.80;46.50
65038;DHT22;51605;47.040;15.294;2023-11-19T08:47:57;21.80;46.40
65038;DHT22;51605;47.040;15.294;2023-11-19T08:50:23;21.80;46.50
65038;DHT22;51605;47.040;15.294;2023-11-19T08:52:49;21.80;46.40
65038;DHT22;51605;47.040;15.294;2023-11-19T08:55:14;21.80;46.40
65038;DHT22;51605;47.040;15.294;2023-11-19T08:57:40;21.80;46.40
65038;DHT22;51605;47.040;15.294;2023-11-19T09:00:06;21.80;46.30
65038;DHT22;51605;47.040;15.294;2023-11-19T09:02:35;21.80;46.30
65038;DHT22;51605;47.040;15.294;2023-11-19T09:05:02;21.80;46.30
65038;DHT22;51605;47.040;15.294;2023-11-19T09:07:28;21.80;46.30
65038;DHT22;51605;47.040;15.294;2023-11-19T09:09:54;21.80;46.40
65038;DHT22;51605;47.040;15.294;2023-11-19T09:12:22;21.80;46.40
65038;DHT22;51605;47.040;15.294;2023-11-19T09:14:48;21.80;46.20
65038;DHT22;51605;47.040;15.294;2023-11-19T09:17:14;21.80;46.20
65038;DHT22;51605;47.040;15.294;2023-11-19T09:19:40;21.90;46.20
65038;DHT22;51605;47.040;15.294;2023-11-19T09:22:06;21.80;46.10
65038;DHT22;51605;47.040;15.294;2023-11-19T09:24:32;21.90;46.10
65038;DHT22;51605;47.040;15.294;2023-11-19T09:26:57;21.90;46.10
65038;DHT22;51605;47.040;15.294;2023-11-19T09:29:23;21.90;46.10
65038;DHT22;51605;47.040;15.294;2023-11-19T09:31:49;21.80;46.00
65038;DHT22;51605;47.040;15.294;2023-11-19T09:34:14;21.90;46.10
65038;DHT22;51605;47.040;15.294;2023-11-19T09:36:40;21.80;46.00
65038;DHT22;51605;47.040;15.294;2023-11-19T09:39:13;21.90;46.10
65038;DHT22;51605;47.040;15.294;2023-11-19T09:41:40;21.80;46.00
65038;DHT22;51605;47.040;15.294;2023-11-19T09:44:08;21.80;46.10
65038;DHT22;51605;47.040;15.294;2023-11-19T09:46:34;21.80;46.20
65038;DHT22;51605;47.040;15.294;2023-11-19T09:49:01;21.80;46.20
65038;DHT22;51605;47.040;15.294;2023-11-19T09:51:28;21.80;46.10
65038;DHT22;51605;47.040;15.294;2023-11-19T09:53:53;21.80;46.00
65038;DHT22;51605;47.040;15.294;2023-11-19T09:56:19;21.80;47.00
65038;DHT22;51605;47.040;15.294;2023-11-19T09:58:45;21.80;46.20
65038;DHT22;51605;47.040;15.294;2023-11-19T10:01:11;21.80;46.20
65038;DHT22;51605;47.040;15.294;2023-11-19T10:03:38;21.80;46.30
65038;DHT22;51605;47.040;15.294;2023-11-19T10:06:08;21.80;46.20
65038;DHT22;51605;47.040;15.294;2023-11-19T10:08:41;21.70;46.40
65038;DHT22;51605;47.040;15.294;2023-11-19T10:11:07;21.70;46.60
65038;DHT22;51605;47.040;15.294;2023-11-19T10:13:36;21.60;46.60
65038;DHT22;51605;47.040;15.294;2023-11-19T10:16:14;21.60;46.60
65038;DHT22;51605;47.040;15.294;2023-11-19T10:18:45;21.60;46.60
65038;DHT22;51605;47.040;15.294;2023-11-19T10:21:16;21.70;46.10
65038;DHT22;51605;47.040;15.294;2023-11-19T10:23:57;21.60;45.80
65038;DHT22;51605;47.040;15.294;2023-11-19T10:26:26;21.70;45.70
65038;DHT22;51605;47.040;15.294;2023-11-19T10:28:52;21.70;45.50
65038;DHT22;51605;47.040;15.294;2023-11-19T10:31:20;21.70;45.70
65038;DHT22;51605;47.040;15.294;2023-11-19T10:33:50;21.70;45.80
65038;DHT22;51605;47.040;15.294;2023-11-19T10:36:17;21.70;45.50
65038;DHT22;51605;47.040;15.294;2023-11-19T10:38:52;21.70;45.40
65038;DHT22;51605;47.040;15.294;2023-11-19T10:41:31;21.70;45.50
65038;DHT22;51605;47.040;15.294;2023-11-19T10:43:58;21.70;45.30
65038;DHT22;51605;47.040;15.294;2023-11-19T10:46:38;21.70;45.40
65038;DHT22;51605;47.040;15.294;2023-11-19T10:49:08;21.70;45.60
65038;DHT22;51605;47.040;15.294;2023-11-19T10:51:36;21.70;45.60
65038;DHT22;51605;47.040;15.294;2023-11-19T10:54:05;21.70;45.70
65038;DHT22;51605;47.040;15.294;2023-11-19T10:56:32;21.70;45.60
65038;DHT22;51605;47.040;15.294;2023-11-19T10:59:02;21.70;45.50
65038;DHT22;51605;47.040;15.294;2023-11-19T11:01:43;21.70;45.60
65038;DHT22;51605;47.040;15.294;2023-11-19T11:04:24;21.80;45.50
65038;DHT22;51605;47.040;15.294;2023-11-19T11:06:51;21.80;45.50
65038;DHT22;51605;47.040;15.294;2023-11-19T11:09:20;21.80;45.50
65038;DHT22;51605;47.040;15.294;2023-11-19T11:11:50;21.80;45.50
65038;DHT22;51605;47.040;15.294;2023-11-19T11:14:18;21.80;45.50
65038;DHT22;51605;47.040;15.294;2023-11-19T11:16:46;21.80;45.50
65038;DHT22;51605;47.040;15.294;2023-11-19T11:19:15;21.80;45.50
65038;DHT22;51605;47.040;15.294;2023-11-19T11:21:45;21.80;45.50
65038;DHT22;51605;47.040;15.294;2023-11-19T11:30:23;21.80;45.50
65038;DHT22;51605;47.040;15.294;2023-11-19T11:33:15;21.80;45.50
65038;DHT22;51605;47.040;15.294;2023-11-19T11:36:17;21.80;45.50
65038;DHT22;51605;47.040;15.294;2023-11-19T11:38:48;21.80;45.70
65038;DHT22;51605;47.040;15.294;2023-11-19T11:41:21;21.80;45.50
65038;DHT22;51605;47.040;15.294;2023-11-19T11:43:49;21.80;45.60
65038;DHT22;51605;47.040;15.294;2023-11-19T11:49:03;21.80;45.70
65038;DHT22;51605;47.040;15.294;2023-11-19T11:54:11;21.80;45.70
65038;DHT22;51605;47.040;15.294;2023-11-19T11:56:37;21.80;45.80
65038;DHT22;51605;47.040;15.294;2023-11-19T11:59:18;21.80;45.80
65038;DHT22;51605;47.040;15.294;2023-11-19T12:02:00;21.80;45.80
65038;DHT22;51605;47.040;15.294;2023-11-19T12:04:27;21.80;45.70
65038;DHT22;51605;47.040;15.294;2023-11-19T12:07:12;21.80;45.80
65038;DHT22;51605;47.040;15.294;2023-11-19T12:09:48;21.80;45.70
65038;DHT22;51605;47.040;15.294;2023-11-19T12:12:25;21.80;45.70
65038;DHT22;51605;47.040;15.294;2023-11-19T12:15:10;21.80;45.80
65038;DHT22;51605;47.040;15.294;2023-11-19T12:17:44;21.80;45.90
65038;DHT22;51605;47.040;15.294;2023-11-19T12:20:14;21.80;45.80
65038;DHT22;51605;47.040;15.294;2023-11-19T12:22:42;21.80;45.80
65038;DHT22;51605;47.040;15.294;2023-11-19T12:25:09;21.80;45.80
65038;DHT22;51605;47.040;15.294;2023-11-19T12:27:41;21.90;45.80
65038;DHT22;51605;47.040;15.294;2023-11-19T12:30:07;21.80;45.80
65038;DHT22;51605;47.040;15.294;2023-11-19T12:32:37;21.80;45.80
65038;DHT22;51605;47.040;15.294;2023-11-19T12:35:03;21.80;45.80
65038;DHT22;51605;47.040;15.294;2023-11-19T12:37:29;21.90;45.70
65038;DHT22;51605;47.040;15.294;2023-11-19T12:39:57;21.90;45.80
65038;DHT22;51605;47.040;15.294;2023-11-19T12:42:35;21.90;45.80
65038;DHT22;51605;47.040;15.294;2023-11-19T12:45:01;21.80;45.80
65038;DHT22;51605;47.040;15.294;2023-11-19T12:47:27;21.90;45.90
65038;DHT22;51605;47.040;15.294;2023-11-19T12:49:56;21.90;45.90
65038;DHT22;51605;47.040;15.294;2023-11-19T12:52:22;21.80;45.90
65038;DHT22;51605;47.040;15.294;2023-11-19T12:54:49;21.80;45.70
65038;DHT22;51605;47.040;15.294;2023-11-19T12:57:15;21.80;45.80
65038;DHT22;51605;47.040;15.294;2023-11-19T12:59:41;21.80;45.80
65038;DHT22;51605;47.040;15.294;2023-11-19T13:02:06;21.80;45.80
65038;DHT22;51605;47.040;15.294;2023-11-19T13:04:33;21.80;46.00
65038;DHT22;51605;47.040;15.294;2023-11-19T13:07:00;21.80;45.60
65038;DHT22;51605;47.040;15.294;2023-11-19T13:09:26;21.80;45.50
65038;DHT22;51605;47.040;15.294;2023-11-19T13:11:53;21.80;45.60
65038;DHT22;51605;47.040;15.294;2023-11-19T13:14:20;21.80;45.50
65038;DHT22;51605;47.040;15.294;2023-11-19T13:16:46;21.70;45.50
65038;DHT22;51605;47.040;15.294;2023-11-19T13:19:15;21.70;45.50
65038;DHT22;51605;47.040;15.294;2023-11-19T13:21:47;21.70;45.30
65038;DHT22;51605;47.040;15.294;2023-11-19T13:24:13;21.70;45.20
65038;DHT22;51605;47.040;15.294;2023-11-19T13:26:39;21.70;45.10
65038;DHT22;51605;47.040;15.294;2023-11-19T13:29:05;21.70;45.00
65038;DHT22;51605;47.040;15.294;2023-11-19T13:31:31;21.70;45.10
65038;DHT22;51605;47.040;15.294;2023-11-19T13:33:56;21.70;45.10
65038;DHT22;51605;47.040;15.294;2023-11-19T13:36:23;21.80;45.00
65038;DHT22;51605;47.040;15.294;2023-11-19T13:38:49;21.80;45.00
65038;DHT22;51605;47.040;15.294;2023-11-19T13:41:15;21.80;45.00
65038;DHT22;51605;47.040;15.294;2023-11-19T13:43:41;21.80;45.00
65038;DHT22;51605;47.040;15.294;2023-11-19T13:46:07;21.80;45.00
65038;DHT22;51605;47.040;15.294;2023-11-19T13:48:35;21.80;45.10
65038;DHT22;51605;47.040;15.294;2023-11-19T13:51:01;21.80;46.20
65038;DHT22;51605;47.040;15.294;2023-11-19T13:53:26;21.70;45.10
65038;DHT22;51605;47.040;15.294;2023-11-19T13:55:52;21.80;45.30
65038;DHT22;51605;47.040;15.294;2023-11-19T13:58:18;21.80;45.30
65038;DHT22;51605;47.040;15.294;2023-11-19T14:00:44;21.80;45.40
65038;DHT22;51605;47.040;15.294;2023-11-19T14:03:09;21.70;45.30
65038;DHT22;51605;47.040;15.294;2023-11-19T14:05:38;21.80;45.30
65038;DHT22;51605;47.040;15.294;2023-11-19T14:08:07;21.80;45.30
65038;DHT22;51605;47.040;15.294;2023-11-19T14:10:41;21.80;45.30
65038;DHT22;51605;47.040;15.294;2023-11-19T14:13:07;21.80;45.40
65038;DHT22;51605;47.040;15.294;2023-11-19T14:15:33;21.80;45.40
65038;DHT22;51605;47.040;15.294;2023-11-19T14:17:59;21.80;45.40
65038;DHT22;51605;47.040;15.294;2023-11-19T14:20:24;21.80;45.40
65038;DHT22;51605;47.040;15.294;2023-11-19T14:22:51;21.80;45.40
65038;DHT22;51605;47.040;15.294;2023-11-19T14:25:18;21.80;46.30
65038;DHT22;51605;47.040;15.294;2023-11-19T14:27:44;21.80;45.40
65038;DHT22;51605;47.040;15.294;2023-11-19T14:30:12;21.80;45.40
65038;DHT22;51605;47.040;15.294;2023-11-19T14:32:39;21.80;45.30
65038;DHT22;51605;47.040;15.294;2023-11-19T14:35:06;21.80;45.40
65038;DHT22;51605;47.040;15.294;2023-11-19T14:37:32;21.80;45.40
65038;DHT22;51605;47.040;15.294;2023-11-19T14:39:58;21.80;45.60
65038;DHT22;51605;47.040;15.294;2023-11-19T14:42:24;21.80;45.60
65038;DHT22;51605;47.040;15.294;2023-11-19T14:44:53;21.80;45.70
65038;DHT22;51605;47.040;15.294;2023-11-19T14:47:19;21.80;45.70
65038;DHT22;51605;47.040;15.294;2023-11-19T14:49:45;21.80;45.80
65038;DHT22;51605;47.040;15.294;2023-11-19T14:52:11;21.80;45.70
65038;DHT22;51605;47.040;15.294;2023-11-19T14:54:37;21.80;45.70
65038;DHT22;51605;47.040;15.294;2023-11-19T14:57:07;21.80;45.70
65038;DHT22;51605;47.040;15.294;2023-11-19T14:59:34;21.80;45.70
65038;DHT22;51605;47.040;15.294;2023-11-19T15:02:00;21.80;45.70
65038;DHT22;51605;47.040;15.294;2023-11-19T15:04:29;21.80;45.80
65038;DHT22;51605;47.040;15.294;2023-11-19T15:06:58;21.80;45.80
65038;DHT22;51605;47.040;15.294;2023-11-19T15:09:24;21.80;45.80
65038;DHT22;51605;47.040;15.294;2023-11-19T15:11:50;21.80;45.80
65038;DHT22;51605;47.040;15.294;2023-11-19T15:14:16;21.80;45.70
65038;DHT22;51605;47.040;15.294;2023-11-19T15:16:45;21.80;45.80
65038;DHT22;51605;47.040;15.294;2023-11-19T15:19:11;21.80;45.70
65038;DHT22;51605;47.040;15.294;2023-11-19T15:21:43;21.80;45.80
65038;DHT22;51605;47.040;15.294;2023-11-19T15:24:09;21.80;45.80
65038;DHT22;51605;47.040;15.294;2023-11-19T15:26:36;21.80;45.80
65038;DHT22;51605;47.040;15.294;2023-11-19T15:29:03;21.80;45.90